sensor_id;sensor_type;location;lat;lon;timestamp;P1;durP1;ratioP1;P2;durP2;ratioP2
25962;SDS011;13760;52.588;13.406;2023-01-01T00:02:23;43.22;;;26.40;;
25962;SDS011;13760;52.588;13.406;2023-01-01T00:04:49;40.50;;;22.10;;
25962;SDS011;13760;52.588;13.406;2023-01-01T00:07:14;37.53;;;23.10;;
25962;SDS011;13760;52.588;13.406;2023-01-01T00:09:40;39.25;;;21.05;;
25962;SDS011;13760;52.588;13.406;2023-01-01T00:12:24;34.88;;;20.40;;
25962;SDS011;13760;52.588;13.406;2023-01-01T00:14:49;31.40;;;18.55;;
25962;SDS011;13760;52.588;13.406;2023-01-01T00:17:15;29.83;;;15.50;;
25962;SDS011;13760;52.588;13.406;2023-01-01T00:19:40;28.05;;;15.43;;
25962;SDS011;13760;52.588;13.406;2023-01-01T00:22:06;22.70;;;13.77;;
25962;SDS011;13760;52.588;13.406;2023-01-01T00:24:31;22.08;;;12.98;;
25962;SDS011;13760;52.588;13.406;2023-01-01T00:26:57;24.10;;;11.88;;
25962;SDS011;13760;52.588;13.406;2023-01-01T00:29:22;17.70;;;10.27;;
25962;SDS011;13760;52.588;13.406;2023-01-01T00:31:48;24.52;;;10.77;;
25962;SDS011;13760;52.588;13.406;2023-01-01T00:34:13;17.23;;;8.48;;
25962;SDS011;13760;52.588;13.406;2023-01-01T00:36:39;17.70;;;9.00;;
25962;SDS011;13760;52.588;13.406;2023-01-01T00:39:04;13.10;;;7.93;;
25962;SDS011;13760;52.588;13.406;2023-01-01T00:41:30;19.13;;;8.07;;
25962;SDS011;13760;52.588;13.406;2023-01-01T00:43:55;17.05;;;8.05;;
25962;SDS011;13760;52.588;13.406;2023-01-01T00:46:21;15.25;;;7.40;;
25962;SDS011;13760;52.588;13.406;2023-01-01T00:48:46;12.13;;;6.18;;
25962;SDS011;13760;52.588;13.406;2023-01-01T00:51:12;16.00;;;7.00;;
25962;SDS011;13760;52.588;13.406;2023-01-01T00:53:37;19.65;;;5.68;;
25962;SDS011;13760;52.588;13.406;2023-01-01T00:56:03;12.75;;;5.72;;
25962;SDS011;13760;52.588;13.406;2023-01-01T00:58:29;12.45;;;5.68;;
25962;SDS011;13760;52.588;13.406;2023-01-01T01:00:55;11.68;;;5.07;;
25962;SDS011;13760;52.588;13.406;2023-01-01T01:03:21;11.32;;;4.63;;
25962;SDS011;13760;52.588;13.406;2023-01-01T01:05:56;11.48;;;3.95;;
25962;SDS011;13760;52.588;13.406;2023-01-01T01:10:50;13.15;;;4.38;;
25962;SDS011;13760;52.588;13.406;2023-01-01T01:13:16;10.85;;;4.30;;
25962;SDS011;13760;52.588;13.406;2023-01-01T01:15:42;11.80;;;4.07;;
25962;SDS011;13760;52.588;13.406;2023-01-01T01:18:07;8.43;;;3.55;;
25962;SDS011;13760;52.588;13.406;2023-01-01T01:20:33;7.07;;;3.65;;
25962;SDS011;13760;52.588;13.406;2023-01-01T01:22:59;13.93;;;3.97;;
25962;SDS011;13760;52.588;13.406;2023-01-01T01:25:24;9.90;;;3.63;;
25962;SDS011;13760;52.588;13.406;2023-01-01T01:27:50;12.88;;;3.97;;
25962;SDS011;13760;52.588;13.406;2023-01-01T01:30:15;9.55;;;3.50;;
25962;SDS011;13760;52.588;13.406;2023-01-01T01:32:41;11.55;;;3.72;;
25962;SDS011;13760;52.588;13.406;2023-01-01T01:35:06;9.68;;;3.83;;
25962;SDS011;13760;52.588;13.406;2023-01-01T01:37:32;8.65;;;3.80;;
25962;SDS011;13760;52.588;13.406;2023-01-01T01:39:58;9.55;;;3.63;;
25962;SDS011;13760;52.588;13.406;2023-01-01T01:42:23;9.65;;;3.80;;
25962;SDS011;13760;52.588;13.406;2023-01-01T01:44:56;12.07;;;4.32;;
25962;SDS011;13760;52.588;13.406;2023-01-01T01:50:03;11.80;;;4.28;;
25962;SDS011;13760;52.588;13.406;2023-01-01T01:52:30;12.15;;;3.63;;
25962;SDS011;13760;52.588;13.406;2023-01-01T01:55:00;12.63;;;4.50;;
25962;SDS011;13760;52.588;13.406;2023-01-01T01:57:30;14.05;;;5.15;;
25962;SDS011;13760;52.588;13.406;2023-01-01T01:59:56;13.65;;;4.45;;
25962;SDS011;13760;52.588;13.406;2023-01-01T02:02:28;16.60;;;4.97;;
25962;SDS011;13760;52.588;13.406;2023-01-01T02:05:00;11.55;;;4.78;;
25962;SDS011;13760;52.588;13.406;2023-01-01T02:07:26;10.25;;;4.85;;
25962;SDS011;13760;52.588;13.406;2023-01-01T02:09:53;8.88;;;4.25;;
25962;SDS011;13760;52.588;13.406;2023-01-01T02:12:20;13.48;;;4.80;;
25962;SDS011;13760;52.588;13.406;2023-01-01T02:14:46;13.15;;;4.38;;
25962;SDS011;13760;52.588;13.406;2023-01-01T02:17:17;10.70;;;4.88;;
25962;SDS011;13760;52.588;13.406;2023-01-01T02:20:02;9.60;;;4.70;;
25962;SDS011;13760;52.588;13.406;2023-01-01T02:25:27;12.07;;;5.32;;
25962;SDS011;13760;52.588;13.406;2023-01-01T02:31:09;10.63;;;4.82;;
25962;SDS011;13760;52.588;13.406;2023-01-01T02:33:39;12.02;;;5.07;;
25962;SDS011;13760;52.588;13.406;2023-01-01T02:36:08;10.57;;;5.20;;
25962;SDS011;13760;52.588;13.406;2023-01-01T02:38:37;9.60;;;4.75;;
25962;SDS011;13760;52.588;13.406;2023-01-01T02:41:06;13.27;;;5.20;;
25962;SDS011;13760;52.588;13.406;2023-01-01T02:43:38;10.07;;;4.40;;
25962;SDS011;13760;52.588;13.406;2023-01-01T02:46:05;14.27;;;4.88;;
25962;SDS011;13760;52.588;13.406;2023-01-01T02:51:10;13.68;;;4.60;;
25962;SDS011;13760;52.588;13.406;2023-01-01T02:56:24;14.32;;;4.55;;
25962;SDS011;13760;52.588;13.406;2023-01-01T02:59:05;10.50;;;4.60;;
25962;SDS011;13760;52.588;13.406;2023-01-01T03:02:08;11.52;;;4.78;;
25962;SDS011;13760;52.588;13.406;2023-01-01T03:10:38;7.93;;;4.95;;
25962;SDS011;13760;52.588;13.406;2023-01-01T03:16:20;14.60;;;4.32;;
25962;SDS011;13760;52.588;13.406;2023-01-01T03:18:57;10.75;;;4.95;;
25962;SDS011;13760;52.588;13.406;2023-01-01T03:21:41;10.48;;;4.45;;
25962;SDS011;13760;52.588;13.406;2023-01-01T03:24:11;12.55;;;4.97;;
25962;SDS011;13760;52.588;13.406;2023-01-01T03:26:41;12.93;;;5.00;;
25962;SDS011;13760;52.588;13.406;2023-01-01T03:29:11;13.90;;;4.70;;
25962;SDS011;13760;52.588;13.406;2023-01-01T03:31:38;18.15;;;6.85;;
25962;SDS011;13760;52.588;13.406;2023-01-01T03:34:09;21.27;;;8.57;;
25962;SDS011;13760;52.588;13.406;2023-01-01T03:36:40;26.42;;;8.60;;
25962;SDS011;13760;52.588;13.406;2023-01-01T03:41:42;15.38;;;6.20;;
25962;SDS011;13760;52.588;13.406;2023-01-01T03:44:24;11.77;;;5.88;;
25962;SDS011;13760;52.588;13.406;2023-01-01T03:46:56;14.73;;;5.82;;
25962;SDS011;13760;52.588;13.406;2023-01-01T03:49:23;9.25;;;5.07;;
25962;SDS011;13760;52.588;13.406;2023-01-01T03:54:48;13.05;;;4.50;;
25962;SDS011;13760;52.588;13.406;2023-01-01T03:57:21;12.23;;;4.53;;
25962;SDS011;13760;52.588;13.406;2023-01-01T04:00:07;16.92;;;4.55;;
25962;SDS011;13760;52.588;13.406;2023-01-01T04:02:56;13.00;;;4.80;;
25962;SDS011;13760;52.588;13.406;2023-01-01T04:05:30;12.45;;;4.55;;
25962;SDS011;13760;52.588;13.406;2023-01-01T04:07:58;11.15;;;4.38;;
25962;SDS011;13760;52.588;13.406;2023-01-01T04:10:26;9.63;;;4.50;;
25962;SDS011;13760;52.588;13.406;2023-01-01T04:12:55;15.43;;;4.70;;
25962;SDS011;13760;52.588;13.406;2023-01-01T04:15:24;12.52;;;4.53;;
25962;SDS011;13760;52.588;13.406;2023-01-01T04:17:51;14.70;;;4.55;;
25962;SDS011;13760;52.588;13.406;2023-01-01T04:20:17;8.70;;;3.95;;
25962;SDS011;13760;52.588;13.406;2023-01-01T04:22:43;13.98;;;4.88;;
25962;SDS011;13760;52.588;13.406;2023-01-01T04:25:09;10.43;;;4.68;;
25962;SDS011;13760;52.588;13.406;2023-01-01T04:27:36;16.65;;;4.60;;
25962;SDS011;13760;52.588;13.406;2023-01-01T04:30:03;11.13;;;4.40;;
25962;SDS011;13760;52.588;13.406;2023-01-01T04:32:30;9.45;;;3.95;;
25962;SDS011;13760;52.588;13.406;2023-01-01T04:34:55;10.85;;;4.05;;
25962;SDS011;13760;52.588;13.406;2023-01-01T04:37:21;15.65;;;4.10;;
25962;SDS011;13760;52.588;13.406;2023-01-01T04:39:46;11.50;;;4.65;;
25962;SDS011;13760;52.588;13.406;2023-01-01T04:42:12;19.70;;;4.90;;
25962;SDS011;13760;52.588;13.406;2023-01-01T04:44:37;13.18;;;4.20;;
25962;SDS011;13760;52.588;13.406;2023-01-01T04:47:03;16.63;;;4.40;;
25962;SDS011;13760;52.588;13.406;2023-01-01T04:49:29;14.38;;;4.57;;
25962;SDS011;13760;52.588;13.406;2023-01-01T04:51:54;8.80;;;4.20;;
25962;SDS011;13760;52.588;13.406;2023-01-01T04:54:20;14.23;;;4.63;;
25962;SDS011;13760;52.588;13.406;2023-01-01T04:56:45;11.15;;;4.05;;
25962;SDS011;13760;52.588;13.406;2023-01-01T04:59:11;13.98;;;4.45;;
25962;SDS011;13760;52.588;13.406;2023-01-01T05:01:36;11.95;;;4.05;;
25962;SDS011;13760;52.588;13.406;2023-01-01T05:04:02;12.45;;;4.20;;
25962;SDS011;13760;52.588;13.406;2023-01-01T05:06:27;12.00;;;5.28;;
25962;SDS011;13760;52.588;13.406;2023-01-01T05:08:54;8.90;;;4.35;;
25962;SDS011;13760;52.588;13.406;2023-01-01T05:11:27;12.20;;;4.47;;
25962;SDS011;13760;52.588;13.406;2023-01-01T05:13:54;8.65;;;4.13;;
25962;SDS011;13760;52.588;13.406;2023-01-01T05:16:23;13.07;;;4.35;;
25962;SDS011;13760;52.588;13.406;2023-01-01T05:18:50;14.38;;;4.40;;
25962;SDS011;13760;52.588;13.406;2023-01-01T05:21:20;18.20;;;4.93;;
25962;SDS011;13760;52.588;13.406;2023-01-01T05:23:48;12.30;;;4.88;;
25962;SDS011;13760;52.588;13.406;2023-01-01T05:26:18;10.93;;;4.80;;
25962;SDS011;13760;52.588;13.406;2023-01-01T05:28:45;11.50;;;4.93;;
25962;SDS011;13760;52.588;13.406;2023-01-01T05:31:12;13.25;;;4.72;;
25962;SDS011;13760;52.588;13.406;2023-01-01T05:33:39;11.15;;;4.53;;
25962;SDS011;13760;52.588;13.406;2023-01-01T05:36:05;11.90;;;4.40;;
25962;SDS011;13760;52.588;13.406;2023-01-01T05:38:33;8.70;;;3.85;;
25962;SDS011;13760;52.588;13.406;2023-01-01T05:41:03;10.02;;;4.03;;
25962;SDS011;13760;52.588;13.406;2023-01-01T05:43:33;9.50;;;4.40;;
25962;SDS011;13760;52.588;13.406;2023-01-01T05:46:03;10.05;;;4.30;;
25962;SDS011;13760;52.588;13.406;2023-01-01T05:51:06;11.65;;;4.03;;
25962;SDS011;13760;52.588;13.406;2023-01-01T05:53:36;13.80;;;4.35;;
25962;SDS011;13760;52.588;13.406;2023-01-01T05:56:02;9.63;;;3.63;;
25962;SDS011;13760;52.588;13.406;2023-01-01T05:58:28;11.70;;;3.55;;
25962;SDS011;13760;52.588;13.406;2023-01-01T06:00:56;9.63;;;3.67;;
25962;SDS011;13760;52.588;13.406;2023-01-01T06:03:22;8.38;;;3.97;;
25962;SDS011;13760;52.588;13.406;2023-01-01T06:05:47;9.45;;;4.13;;
25962;SDS011;13760;52.588;13.406;2023-01-01T06:08:13;12.38;;;3.33;;
25962;SDS011;13760;52.588;13.406;2023-01-01T06:10:39;8.75;;;3.90;;
25962;SDS011;13760;52.588;13.406;2023-01-01T06:13:04;7.90;;;3.85;;
25962;SDS011;13760;52.588;13.406;2023-01-01T06:15:30;7.63;;;3.58;;
25962;SDS011;13760;52.588;13.406;2023-01-01T06:17:56;11.88;;;3.15;;
25962;SDS011;13760;52.588;13.406;2023-01-01T06:20:22;11.80;;;3.38;;
25962;SDS011;13760;52.588;13.406;2023-01-01T06:22:48;8.30;;;3.58;;
25962;SDS011;13760;52.588;13.406;2023-01-01T06:25:13;8.23;;;3.78;;
25962;SDS011;13760;52.588;13.406;2023-01-01T06:27:39;9.35;;;3.42;;
25962;SDS011;13760;52.588;13.406;2023-01-01T06:30:04;8.43;;;3.30;;
25962;SDS011;13760;52.588;13.406;2023-01-01T06:32:31;8.82;;;3.70;;
25962;SDS011;13760;52.588;13.406;2023-01-01T06:34:57;15.60;;;3.63;;
25962;SDS011;13760;52.588;13.406;2023-01-01T06:37:22;8.68;;;3.35;;
25962;SDS011;13760;52.588;13.406;2023-01-01T06:39:48;9.45;;;3.33;;
25962;SDS011;13760;52.588;13.406;2023-01-01T06:42:13;9.75;;;3.78;;
25962;SDS011;13760;52.588;13.406;2023-01-01T06:44:39;11.40;;;3.22;;
25962;SDS011;13760;52.588;13.406;2023-01-01T06:47:05;9.43;;;3.45;;
25962;SDS011;13760;52.588;13.406;2023-01-01T06:49:31;7.82;;;3.55;;
25962;SDS011;13760;52.588;13.406;2023-01-01T06:51:57;10.90;;;3.80;;
25962;SDS011;13760;52.588;13.406;2023-01-01T06:54:22;10.95;;;3.33;;
25962;SDS011;13760;52.588;13.406;2023-01-01T06:56:48;12.70;;;3.05;;
25962;SDS011;13760;52.588;13.406;2023-01-01T06:59:14;7.80;;;3.47;;
25962;SDS011;13760;52.588;13.406;2023-01-01T07:01:41;13.55;;;3.92;;
25962;SDS011;13760;52.588;13.406;2023-01-01T07:04:07;9.23;;;3.58;;
25962;SDS011;13760;52.588;13.406;2023-01-01T07:06:35;11.90;;;3.22;;
25962;SDS011;13760;52.588;13.406;2023-01-01T07:09:01;11.90;;;3.85;;
25962;SDS011;13760;52.588;13.406;2023-01-01T07:11:28;9.95;;;3.72;;
25962;SDS011;13760;52.588;13.406;2023-01-01T07:13:53;12.32;;;3.70;;
25962;SDS011;13760;52.588;13.406;2023-01-01T07:16:19;10.43;;;3.60;;
25962;SDS011;13760;52.588;13.406;2023-01-01T07:18:45;12.98;;;3.90;;
25962;SDS011;13760;52.588;13.406;2023-01-01T07:21:32;10.40;;;3.67;;
25962;SDS011;13760;52.588;13.406;2023-01-01T07:24:02;9.38;;;3.88;;
25962;SDS011;13760;52.588;13.406;2023-01-01T07:26:29;7.40;;;3.22;;
25962;SDS011;13760;52.588;13.406;2023-01-01T07:28:55;8.70;;;3.45;;
25962;SDS011;13760;52.588;13.406;2023-01-01T07:31:21;12.10;;;3.85;;
25962;SDS011;13760;52.588;13.406;2023-01-01T07:33:47;11.18;;;3.42;;
25962;SDS011;13760;52.588;13.406;2023-01-01T07:36:12;8.73;;;2.97;;
25962;SDS011;13760;52.588;13.406;2023-01-01T07:38:38;9.55;;;4.13;;
25962;SDS011;13760;52.588;13.406;2023-01-01T07:41:04;8.98;;;3.47;;
25962;SDS011;13760;52.588;13.406;2023-01-01T07:43:29;8.50;;;3.95;;
25962;SDS011;13760;52.588;13.406;2023-01-01T07:45:56;12.88;;;3.70;;
25962;SDS011;13760;52.588;13.406;2023-01-01T07:48:22;13.95;;;3.80;;
25962;SDS011;13760;52.588;13.406;2023-01-01T07:50:48;9.70;;;3.75;;
25962;SDS011;13760;52.588;13.406;2023-01-01T07:53:14;12.52;;;3.88;;
25962;SDS011;13760;52.588;13.406;2023-01-01T07:55:40;10.02;;;4.30;;
25962;SDS011;13760;52.588;13.406;2023-01-01T07:58:06;10.90;;;3.53;;
25962;SDS011;13760;52.588;13.406;2023-01-01T08:00:31;10.68;;;3.95;;
25962;SDS011;13760;52.588;13.406;2023-01-01T08:02:57;11.98;;;3.78;;
25962;SDS011;13760;52.588;13.406;2023-01-01T08:05:23;9.35;;;3.97;;
25962;SDS011;13760;52.588;13.406;2023-01-01T08:07:49;10.40;;;4.28;;
25962;SDS011;13760;52.588;13.406;2023-01-01T08:10:15;9.88;;;3.65;;
25962;SDS011;13760;52.588;13.406;2023-01-01T08:12:41;7.80;;;3.65;;
25962;SDS011;13760;52.588;13.406;2023-01-01T08:15:08;7.97;;;3.85;;
25962;SDS011;13760;52.588;13.406;2023-01-01T08:17:34;9.60;;;4.47;;
25962;SDS011;13760;52.588;13.406;2023-01-01T08:20:00;8.68;;;3.70;;
25962;SDS011;13760;52.588;13.406;2023-01-01T08:22:25;10.65;;;4.30;;
25962;SDS011;13760;52.588;13.406;2023-01-01T08:24:51;10.35;;;4.22;;
25962;SDS011;13760;52.588;13.406;2023-01-01T08:27:16;8.40;;;4.28;;
25962;SDS011;13760;52.588;13.406;2023-01-01T08:29:42;10.65;;;4.50;;
25962;SDS011;13760;52.588;13.406;2023-01-01T08:32:09;11.70;;;4.40;;
25962;SDS011;13760;52.588;13.406;2023-01-01T08:34:35;8.35;;;4.45;;
25962;SDS011;13760;52.588;13.406;2023-01-01T08:37:00;11.10;;;4.68;;
25962;SDS011;13760;52.588;13.406;2023-01-01T08:39:26;9.38;;;4.53;;
25962;SDS011;13760;52.588;13.406;2023-01-01T08:41:52;11.82;;;4.43;;
25962;SDS011;13760;52.588;13.406;2023-01-01T08:44:18;11.30;;;4.40;;
25962;SDS011;13760;52.588;13.406;2023-01-01T08:46:43;11.65;;;4.28;;
25962;SDS011;13760;52.588;13.406;2023-01-01T08:49:09;9.38;;;4.45;;
25962;SDS011;13760;52.588;13.406;2023-01-01T08:51:34;10.68;;;4.35;;
25962;SDS011;13760;52.588;13.406;2023-01-01T08:54:00;9.45;;;4.45;;
25962;SDS011;13760;52.588;13.406;2023-01-01T08:56:25;9.32;;;4.20;;
25962;SDS011;13760;52.588;13.406;2023-01-01T08:58:51;6.93;;;4.07;;
25962;SDS011;13760;52.588;13.406;2023-01-01T09:01:17;9.35;;;4.72;;
25962;SDS011;13760;52.588;13.406;2023-01-01T09:03:45;8.85;;;4.65;;
25962;SDS011;13760;52.588;13.406;2023-01-01T09:06:11;8.25;;;4.25;;
25962;SDS011;13760;52.588;13.406;2023-01-01T09:08:37;10.02;;;4.28;;
25962;SDS011;13760;52.588;13.406;2023-01-01T09:11:02;12.45;;;4.85;;
25962;SDS011;13760;52.588;13.406;2023-01-01T09:13:29;11.77;;;4.90;;
25962;SDS011;13760;52.588;13.406;2023-01-01T09:15:55;8.13;;;4.40;;
25962;SDS011;13760;52.588;13.406;2023-01-01T09:18:21;13.70;;;4.80;;
25962;SDS011;13760;52.588;13.406;2023-01-01T09:20:47;8.45;;;4.25;;
25962;SDS011;13760;52.588;13.406;2023-01-01T09:23:12;13.27;;;5.03;;
25962;SDS011;13760;52.588;13.406;2023-01-01T09:25:38;10.10;;;4.85;;
25962;SDS011;13760;52.588;13.406;2023-01-01T09:28:05;13.82;;;5.38;;
25962;SDS011;13760;52.588;13.406;2023-01-01T09:30:32;8.20;;;4.30;;
25962;SDS011;13760;52.588;13.406;2023-01-01T09:32:58;11.80;;;4.63;;
25962;SDS011;13760;52.588;13.406;2023-01-01T09:35:23;9.65;;;4.70;;
25962;SDS011;13760;52.588;13.406;2023-01-01T09:37:49;7.40;;;4.22;;
25962;SDS011;13760;52.588;13.406;2023-01-01T09:40:29;9.05;;;4.30;;
25962;SDS011;13760;52.588;13.406;2023-01-01T09:43:05;8.70;;;3.97;;
25962;SDS011;13760;52.588;13.406;2023-01-01T09:45:39;8.82;;;4.32;;
25962;SDS011;13760;52.588;13.406;2023-01-01T09:48:18;9.48;;;4.10;;
25962;SDS011;13760;52.588;13.406;2023-01-01T09:50:45;12.05;;;4.20;;
25962;SDS011;13760;52.588;13.406;2023-01-01T09:53:17;11.00;;;4.20;;
25962;SDS011;13760;52.588;13.406;2023-01-01T09:55:52;9.57;;;4.30;;
25962;SDS011;13760;52.588;13.406;2023-01-01T09:58:23;8.75;;;4.07;;
25962;SDS011;13760;52.588;13.406;2023-01-01T10:00:54;7.85;;;4.07;;
25962;SDS011;13760;52.588;13.406;2023-01-01T10:06:26;9.32;;;3.88;;
25962;SDS011;13760;52.588;13.406;2023-01-01T10:09:08;8.63;;;3.63;;
25962;SDS011;13760;52.588;13.406;2023-01-01T10:14:06;9.18;;;3.80;;
25962;SDS011;13760;52.588;13.406;2023-01-01T10:16:42;8.23;;;3.50;;
25962;SDS011;13760;52.588;13.406;2023-01-01T10:19:31;9.00;;;3.95;;
25962;SDS011;13760;52.588;13.406;2023-01-01T10:25:18;9.13;;;3.95;;
25962;SDS011;13760;52.588;13.406;2023-01-01T10:28:18;10.10;;;3.67;;
25962;SDS011;13760;52.588;13.406;2023-01-01T10:30:48;7.30;;;3.33;;
25962;SDS011;13760;52.588;13.406;2023-01-01T10:33:25;9.15;;;3.50;;
25962;SDS011;13760;52.588;13.406;2023-01-01T10:35:51;9.98;;;3.63;;
25962;SDS011;13760;52.588;13.406;2023-01-01T10:38:21;6.53;;;3.05;;
25962;SDS011;13760;52.588;13.406;2023-01-01T10:40:48;6.72;;;3.65;;
25962;SDS011;13760;52.588;13.406;2023-01-01T10:43:15;8.70;;;3.45;;
25962;SDS011;13760;52.588;13.406;2023-01-01T10:45:51;7.28;;;3.47;;
25962;SDS011;13760;52.588;13.406;2023-01-01T10:48:19;9.48;;;3.47;;
25962;SDS011;13760;52.588;13.406;2023-01-01T10:50:48;7.50;;;3.03;;
25962;SDS011;13760;52.588;13.406;2023-01-01T10:53:24;5.35;;;3.05;;
25962;SDS011;13760;52.588;13.406;2023-01-01T10:56:17;9.52;;;3.05;;
25962;SDS011;13760;52.588;13.406;2023-01-01T11:06:33;6.25;;;3.08;;
25962;SDS011;13760;52.588;13.406;2023-01-01T11:09:02;5.85;;;3.20;;
25962;SDS011;13760;52.588;13.406;2023-01-01T11:14:05;6.28;;;2.83;;
25962;SDS011;13760;52.588;13.406;2023-01-01T11:16:46;6.30;;;2.80;;
25962;SDS011;13760;52.588;13.406;2023-01-01T11:19:23;6.30;;;3.10;;
25962;SDS011;13760;52.588;13.406;2023-01-01T11:21:53;6.20;;;3.00;;
25962;SDS011;13760;52.588;13.406;2023-01-01T11:24:19;6.47;;;2.67;;
25962;SDS011;13760;52.588;13.406;2023-01-01T11:26:50;8.93;;;3.25;;
25962;SDS011;13760;52.588;13.406;2023-01-01T11:29:24;4.63;;;2.58;;
25962;SDS011;13760;52.588;13.406;2023-01-01T11:31:51;8.07;;;2.97;;
25962;SDS011;13760;52.588;13.406;2023-01-01T11:34:34;9.18;;;3.08;;
25962;SDS011;13760;52.588;13.406;2023-01-01T11:37:07;6.88;;;2.70;;
25962;SDS011;13760;52.588;13.406;2023-01-01T11:39:35;7.30;;;3.17;;
25962;SDS011;13760;52.588;13.406;2023-01-01T11:42:01;5.65;;;2.65;;
25962;SDS011;13760;52.588;13.406;2023-01-01T11:49:56;6.20;;;2.80;;
25962;SDS011;13760;52.588;13.406;2023-01-01T11:52:38;8.75;;;2.88;;
25962;SDS011;13760;52.588;13.406;2023-01-01T11:55:13;6.32;;;2.67;;
25962;SDS011;13760;52.588;13.406;2023-01-01T11:57:50;8.77;;;3.00;;
25962;SDS011;13760;52.588;13.406;2023-01-01T12:00:18;6.32;;;2.85;;
25962;SDS011;13760;52.588;13.406;2023-01-01T12:02:53;7.45;;;2.83;;
25962;SDS011;13760;52.588;13.406;2023-01-01T12:05:25;10.68;;;3.10;;
25962;SDS011;13760;52.588;13.406;2023-01-01T12:08:02;7.88;;;3.10;;
25962;SDS011;13760;52.588;13.406;2023-01-01T12:10:32;10.77;;;2.78;;
25962;SDS011;13760;52.588;13.406;2023-01-01T12:13:16;6.40;;;2.80;;
25962;SDS011;13760;52.588;13.406;2023-01-01T12:16:01;5.05;;;2.78;;
25962;SDS011;13760;52.588;13.406;2023-01-01T12:18:36;7.05;;;2.80;;
25962;SDS011;13760;52.588;13.406;2023-01-01T12:21:18;7.18;;;3.03;;
25962;SDS011;13760;52.588;13.406;2023-01-01T12:23:48;5.68;;;2.75;;
25962;SDS011;13760;52.588;13.406;2023-01-01T12:37:29;6.50;;;2.85;;
25962;SDS011;13760;52.588;13.406;2023-01-01T12:43:09;7.40;;;3.58;;
25962;SDS011;13760;52.588;13.406;2023-01-01T12:45:46;7.70;;;3.33;;
25962;SDS011;13760;52.588;13.406;2023-01-01T12:48:39;9.80;;;3.15;;
25962;SDS011;13760;52.588;13.406;2023-01-01T12:51:16;6.93;;;2.72;;
25962;SDS011;13760;52.588;13.406;2023-01-01T12:56:42;8.10;;;2.90;;
25962;SDS011;13760;52.588;13.406;2023-01-01T12:59:17;6.27;;;2.73;;
25962;SDS011;13760;52.588;13.406;2023-01-01T13:01:46;8.80;;;2.97;;
25962;SDS011;13760;52.588;13.406;2023-01-01T13:04:19;7.45;;;3.03;;
25962;SDS011;13760;52.588;13.406;2023-01-01T13:06:47;8.05;;;2.60;;
25962;SDS011;13760;52.588;13.406;2023-01-01T13:09:24;4.75;;;2.65;;
25962;SDS011;13760;52.588;13.406;2023-01-01T13:12:00;5.88;;;2.30;;
25962;SDS011;13760;52.588;13.406;2023-01-01T13:14:29;8.13;;;2.58;;
25962;SDS011;13760;52.588;13.406;2023-01-01T13:17:01;8.43;;;3.00;;
25962;SDS011;13760;52.588;13.406;2023-01-01T13:19:30;5.15;;;2.60;;
25962;SDS011;13760;52.588;13.406;2023-01-01T13:21:58;6.45;;;2.80;;
25962;SDS011;13760;52.588;13.406;2023-01-01T13:36:28;6.20;;;2.47;;
25962;SDS011;13760;52.588;13.406;2023-01-01T13:38:42;8.20;;;2.85;;
25962;SDS011;13760;52.588;13.406;2023-01-01T13:46:36;7.20;;;2.70;;
25962;SDS011;13760;52.588;13.406;2023-01-01T13:51:53;5.65;;;2.80;;
25962;SDS011;13760;52.588;13.406;2023-01-01T14:00:15;5.70;;;2.92;;
25962;SDS011;13760;52.588;13.406;2023-01-01T14:02:47;10.95;;;2.83;;
25962;SDS011;13760;52.588;13.406;2023-01-01T14:05:32;8.65;;;2.90;;
25962;SDS011;13760;52.588;13.406;2023-01-01T14:08:04;8.82;;;3.05;;
25962;SDS011;13760;52.588;13.406;2023-01-01T14:10:36;8.75;;;2.80;;
25962;SDS011;13760;52.588;13.406;2023-01-01T14:15:31;9.77;;;2.90;;
25962;SDS011;13760;52.588;13.406;2023-01-01T14:17:59;7.18;;;3.10;;
25962;SDS011;13760;52.588;13.406;2023-01-01T14:21:08;8.35;;;2.75;;
25962;SDS011;13760;52.588;13.406;2023-01-01T14:23:22;7.53;;;2.97;;
25962;SDS011;13760;52.588;13.406;2023-01-01T14:25:54;7.80;;;3.10;;
25962;SDS011;13760;52.588;13.406;2023-01-01T14:28:24;6.80;;;2.67;;
25962;SDS011;13760;52.588;13.406;2023-01-01T14:30:52;9.00;;;2.60;;
25962;SDS011;13760;52.588;13.406;2023-01-01T14:33:29;11.75;;;3.20;;
25962;SDS011;13760;52.588;13.406;2023-01-01T14:35:59;6.05;;;3.25;;
25962;SDS011;13760;52.588;13.406;2023-01-01T14:38:31;7.35;;;3.03;;
25962;SDS011;13760;52.588;13.406;2023-01-01T14:41:04;9.45;;;3.10;;
25962;SDS011;13760;52.588;13.406;2023-01-01T14:43:45;6.10;;;2.75;;
25962;SDS011;13760;52.588;13.406;2023-01-01T14:46:17;7.68;;;2.45;;
25962;SDS011;13760;52.588;13.406;2023-01-01T14:48:44;5.82;;;2.90;;
25962;SDS011;13760;52.588;13.406;2023-01-01T14:51:34;8.00;;;3.10;;
25962;SDS011;13760;52.588;13.406;2023-01-01T14:54:00;6.95;;;3.30;;
25962;SDS011;13760;52.588;13.406;2023-01-01T14:56:32;7.82;;;3.45;;
25962;SDS011;13760;52.588;13.406;2023-01-01T14:59:23;7.47;;;3.05;;
25962;SDS011;13760;52.588;13.406;2023-01-01T15:04:27;7.95;;;3.28;;
25962;SDS011;13760;52.588;13.406;2023-01-01T15:06:54;10.75;;;3.47;;
25962;SDS011;13760;52.588;13.406;2023-01-01T15:09:20;9.10;;;3.20;;
25962;SDS011;13760;52.588;13.406;2023-01-01T15:11:46;10.80;;;3.70;;
25962;SDS011;13760;52.588;13.406;2023-01-01T15:17:05;9.40;;;4.28;;
25962;SDS011;13760;52.588;13.406;2023-01-01T15:19:32;7.22;;;3.80;;
25962;SDS011;13760;52.588;13.406;2023-01-01T15:21:59;9.57;;;4.03;;
25962;SDS011;13760;52.588;13.406;2023-01-01T15:24:25;9.63;;;4.00;;
25962;SDS011;13760;52.588;13.406;2023-01-01T15:26:57;7.90;;;4.05;;
25962;SDS011;13760;52.588;13.406;2023-01-01T15:29:28;11.48;;;3.80;;
25962;SDS011;13760;52.588;13.406;2023-01-01T15:32:03;8.40;;;4.10;;
25962;SDS011;13760;52.588;13.406;2023-01-01T15:34:38;7.57;;;3.70;;
25962;SDS011;13760;52.588;13.406;2023-01-01T15:37:22;8.18;;;3.70;;
25962;SDS011;13760;52.588;13.406;2023-01-01T15:45:22;26.75;;;14.65;;
25962;SDS011;13760;52.588;13.406;2023-01-01T15:47:51;28.98;;;14.48;;
25962;SDS011;13760;52.588;13.406;2023-01-01T15:52:47;14.27;;;6.47;;
25962;SDS011;13760;52.588;13.406;2023-01-01T15:55:15;10.48;;;4.38;;
25962;SDS011;13760;52.588;13.406;2023-01-01T15:57:45;9.52;;;4.20;;
25962;SDS011;13760;52.588;13.406;2023-01-01T16:02:42;8.82;;;4.10;;
25962;SDS011;13760;52.588;13.406;2023-01-01T16:05:14;12.52;;;4.13;;
25962;SDS011;13760;52.588;13.406;2023-01-01T16:07:42;9.90;;;4.85;;
25962;SDS011;13760;52.588;13.406;2023-01-01T16:10:15;9.23;;;4.40;;
25962;SDS011;13760;52.588;13.406;2023-01-01T16:12:41;11.30;;;4.88;;
25962;SDS011;13760;52.588;13.406;2023-01-01T16:15:09;10.50;;;4.70;;
25962;SDS011;13760;52.588;13.406;2023-01-01T16:17:39;8.38;;;5.22;;
25962;SDS011;13760;52.588;13.406;2023-01-01T16:20:05;9.93;;;4.43;;
25962;SDS011;13760;52.588;13.406;2023-01-01T16:22:31;9.75;;;4.70;;
25962;SDS011;13760;52.588;13.406;2023-01-01T16:24:56;9.32;;;4.78;;
25962;SDS011;13760;52.588;13.406;2023-01-01T16:27:22;8.50;;;4.97;;
25962;SDS011;13760;52.588;13.406;2023-01-01T16:29:47;12.18;;;4.60;;
25962;SDS011;13760;52.588;13.406;2023-01-01T16:32:14;8.65;;;4.97;;
25962;SDS011;13760;52.588;13.406;2023-01-01T16:34:41;11.02;;;5.53;;
25962;SDS011;13760;52.588;13.406;2023-01-01T16:37:07;11.35;;;5.22;;
25962;SDS011;13760;52.588;13.406;2023-01-01T16:39:33;6.88;;;4.70;;
25962;SDS011;13760;52.588;13.406;2023-01-01T16:41:58;8.43;;;4.85;;